createdAt,value
2018-05-31T00:01:05.824Z,23.90
2018-05-31T00:03:34.088Z,23.90
2018-05-31T00:06:02.382Z,23.90
2018-05-31T00:08:30.640Z,24.00
2018-05-31T00:10:58.901Z,24.00
2018-05-31T00:13:27.328Z,23.90
2018-05-31T00:15:56.349Z,23.80
2018-05-31T00:18:24.701Z,23.70
2018-05-31T00:20:54.129Z,23.80
2018-05-31T00:23:22.381Z,23.80
2018-05-31T00:25:51.401Z,23.70
2018-05-31T00:28:19.684Z,23.70
2018-05-31T00:30:47.929Z,23.70
2018-05-31T00:33:16.957Z,23.60
2018-05-31T00:35:45.228Z,23.60
2018-05-31T00:38:13.473Z,23.60
2018-05-31T00:40:41.720Z,23.60
2018-05-31T00:43:10.393Z,23.60
2018-05-31T00:45:39.021Z,23.60
2018-05-31T00:48:08.045Z,23.60
2018-05-31T00:50:36.748Z,23.50
2018-05-31T00:53:04.999Z,23.50
2018-05-31T00:55:45.022Z,23.60
2018-05-31T00:58:13.288Z,23.50
2018-05-31T01:00:41.535Z,23.40
2018-05-31T01:03:10.317Z,23.30
2018-05-31T01:05:38.650Z,23.30
2018-05-31T01:08:07.668Z,23.20
2018-05-31T01:10:35.940Z,23.20
2018-05-31T01:13:04.196Z,23.20
2018-05-31T01:15:32.448Z,23.10
2018-05-31T01:18:00.732Z,23.20
2018-05-31T01:20:29.199Z,23.10
2018-05-31T01:22:57.444Z,23.10
2018-05-31T01:25:26.036Z,23.10
2018-05-31T01:27:54.285Z,23.10
2018-05-31T01:30:22.580Z,23.00
2018-05-31T01:32:50.856Z,22.90
2018-05-31T01:35:19.111Z,23.00
2018-05-31T01:37:47.352Z,22.90
2018-05-31T01:40:16.401Z,23.00
2018-05-31T01:42:44.656Z,23.00
2018-05-31T01:45:12.899Z,23.00
2018-05-31T01:47:41.757Z,22.90
2018-05-31T01:50:10.038Z,23.00
2018-05-31T01:52:38.292Z,22.90
2018-05-31T01:55:06.568Z,22.90
2018-05-31T01:57:34.929Z,22.80
2018-05-31T02:00:03.188Z,22.60
2018-05-31T02:02:31.469Z,22.60
2018-05-31T02:04:59.721Z,22.60
2018-05-31T02:07:27.969Z,22.60
2018-05-31T02:09:56.559Z,22.70
2018-05-31T02:12:24.808Z,22.70
2018-05-31T02:14:53.066Z,22.70
2018-05-31T02:17:22.260Z,22.70
2018-05-31T02:19:50.537Z,22.70
2018-05-31T02:22:18.813Z,22.70
2018-05-31T02:24:47.877Z,22.60
2018-05-31T02:27:16.892Z,22.60
2018-05-31T02:29:45.144Z,22.60
2018-05-31T02:32:13.521Z,22.50
2018-05-31T02:34:41.780Z,22.50
2018-05-31T02:37:10.032Z,22.60
2018-05-31T02:39:38.313Z,22.70
2018-05-31T02:42:06.576Z,22.60
2018-05-31T02:44:34.828Z,22.60
2018-05-31T02:47:03.112Z,22.60
2018-05-31T02:49:32.244Z,22.60
2018-05-31T02:52:00.504Z,22.50
2018-05-31T02:54:28.913Z,22.50
2018-05-31T02:56:57.163Z,22.50
2018-05-31T02:59:25.412Z,22.50
2018-05-31T03:01:53.688Z,22.50
2018-05-31T03:04:22.708Z,22.30
2018-05-31T03:06:50.969Z,22.30
2018-05-31T03:09:19.254Z,22.20
2018-05-31T03:11:47.528Z,22.20
2018-05-31T03:14:15.785Z,22.30
2018-05-31T03:16:44.641Z,22.40
2018-05-31T03:19:12.954Z,22.50
2018-05-31T03:21:41.969Z,22.50
2018-05-31T03:24:10.245Z,22.50
2018-05-31T03:26:38.508Z,22.50
2018-05-31T03:29:06.765Z,22.50
2018-05-31T03:31:35.046Z,22.40
2018-05-31T03:34:03.297Z,22.30
2018-05-31T03:36:31.547Z,22.20
2018-05-31T03:39:00.350Z,22.20
2018-05-31T03:41:28.600Z,22.10
2018-05-31T03:43:56.851Z,22.10
2018-05-31T03:46:25.137Z,21.90
2018-05-31T03:48:54.157Z,21.90
2018-05-31T03:51:22.555Z,21.90
2018-05-31T03:53:50.829Z,21.90
2018-05-31T03:56:19.265Z,22.00
2018-05-31T03:58:48.287Z,22.10
2018-05-31T04:01:16.988Z,22.10
2018-05-31T04:03:45.247Z,22.10
2018-05-31T04:06:13.500Z,22.20
2018-05-31T04:08:42.550Z,22.30
2018-05-31T04:11:10.804Z,22.30
2018-05-31T04:13:39.049Z,22.30
2018-05-31T04:16:07.321Z,22.20
2018-05-31T04:18:35.564Z,22.20
2018-05-31T04:21:03.830Z,22.20
2018-05-31T04:23:32.415Z,22.10
2018-05-31T04:26:00.666Z,22.00
2018-05-31T04:28:28.932Z,21.90
2018-05-31T04:30:57.216Z,21.90
2018-05-31T04:33:25.568Z,22.00
2018-05-31T04:35:54.589Z,22.00
2018-05-31T04:38:22.864Z,22.00
2018-05-31T04:40:51.117Z,22.00
2018-05-31T04:43:19.392Z,22.10
2018-05-31T04:45:48.749Z,22.10
2018-05-31T04:48:16.996Z,22.10
2018-05-31T04:50:45.256Z,22.10
2018-05-31T04:53:13.965Z,22.20
2018-05-31T04:55:42.256Z,22.30
2018-05-31T04:58:10.461Z,22.30
2018-05-31T05:00:38.738Z,22.40
2018-05-31T05:03:06.994Z,22.60
2018-05-31T05:05:35.246Z,22.70
2018-05-31T05:08:03.773Z,22.80
2018-05-31T05:10:32.033Z,22.90
2018-05-31T05:13:00.286Z,23.00
2018-05-31T05:15:28.653Z,23.10
2018-05-31T05:17:56.905Z,23.10
2018-05-31T05:20:25.156Z,23.10
2018-05-31T05:22:54.209Z,23.10
2018-05-31T05:25:22.473Z,23.10
2018-05-31T05:27:50.729Z,23.10
2018-05-31T05:30:19.196Z,23.10
2018-05-31T05:32:48.224Z,23.20
2018-05-31T05:35:16.479Z,23.10
2018-05-31T05:37:44.764Z,23.20
2018-05-31T05:40:13.008Z,23.20
2018-05-31T05:42:41.260Z,23.30
2018-05-31T05:45:09.540Z,23.30
2018-05-31T05:47:37.796Z,23.30
2018-05-31T05:50:06.080Z,23.40
2018-05-31T05:52:34.655Z,23.50
2018-05-31T05:55:03.308Z,23.50
2018-05-31T05:57:32.336Z,23.70
2018-05-31T06:00:00.626Z,23.60
2018-05-31T06:02:28.884Z,23.70
2018-05-31T06:04:57.160Z,23.80
2018-05-31T06:07:25.445Z,23.80
2018-05-31T06:09:53.716Z,23.80
2018-05-31T06:12:21.968Z,23.80
2018-05-31T06:14:50.704Z,23.80
2018-05-31T06:17:19.001Z,23.80
2018-05-31T06:19:47.274Z,23.80
2018-05-31T06:22:15.628Z,23.70
2018-05-31T06:24:43.885Z,23.70
2018-05-31T06:27:12.157Z,23.60
2018-05-31T06:29:40.436Z,23.60
2018-05-31T06:32:08.712Z,23.50
2018-05-31T06:34:36.975Z,23.50
2018-05-31T06:37:05.539Z,23.60
2018-05-31T06:39:33.739Z,23.70
2018-05-31T06:42:01.993Z,23.80
2018-05-31T06:44:31.032Z,23.80
2018-05-31T06:46:59.288Z,23.80
2018-05-31T06:49:27.540Z,23.90
2018-05-31T06:51:55.823Z,24.00
2018-05-31T06:54:24.929Z,24.00
2018-05-31T06:56:53.628Z,24.00
2018-05-31T06:59:22.437Z,24.00
2018-05-31T07:01:50.691Z,24.00
2018-05-31T07:04:18.949Z,24.00
2018-05-31T07:06:47.255Z,24.00
2018-05-31T07:09:15.504Z,23.90
2018-05-31T07:11:43.760Z,23.80
2018-05-31T07:14:12.048Z,23.80
2018-05-31T07:16:41.067Z,23.90
2018-05-31T07:19:09.320Z,23.80
2018-05-31T07:21:38.085Z,23.90
2018-05-31T07:24:06.344Z,23.90
2018-05-31T07:26:34.605Z,24.00
2018-05-31T07:29:02.909Z,24.00
2018-05-31T07:31:31.152Z,24.10
2018-05-31T07:33:59.408Z,24.10
2018-05-31T07:36:27.692Z,24.20
2018-05-31T07:38:55.949Z,24.20
2018-05-31T07:41:24.212Z,24.30
2018-05-31T07:43:53.560Z,24.30
2018-05-31T07:46:21.912Z,24.30
2018-05-31T07:48:50.172Z,24.30
2018-05-31T07:51:18.504Z,24.30
2018-05-31T07:53:46.724Z,24.40
2018-05-31T07:56:15.749Z,24.60
2018-05-31T07:58:44.358Z,24.60
2018-05-31T08:01:12.608Z,24.60
2018-05-31T08:03:40.869Z,24.70
2018-05-31T08:06:10.097Z,24.80
2018-05-31T08:08:38.361Z,24.80
2018-05-31T08:11:06.617Z,24.90
2018-05-31T08:13:34.916Z,24.90
2018-05-31T08:16:03.168Z,25.00
2018-05-31T08:18:32.189Z,25.10
2018-05-31T08:21:00.477Z,25.10
2018-05-31T08:23:28.733Z,25.20
2018-05-31T08:25:56.993Z,25.30
2018-05-31T08:28:25.618Z,25.50
2018-05-31T08:30:53.874Z,25.60
2018-05-31T08:33:22.137Z,25.60
2018-05-31T08:35:50.420Z,25.70
2018-05-31T08:38:19.725Z,25.70
2018-05-31T08:40:47.977Z,25.80
2018-05-31T08:43:16.252Z,25.90
2018-05-31T08:45:45.276Z,26.40
2018-05-31T08:48:13.569Z,26.30
2018-05-31T08:50:42.132Z,26.50
2018-05-31T08:53:10.384Z,26.60
2018-05-31T08:55:39.405Z,26.60
2018-05-31T08:58:07.716Z,26.50
2018-05-31T09:00:36.349Z,26.50
2018-05-31T09:03:05.196Z,26.50
2018-05-31T09:05:33.491Z,26.50
2018-05-31T09:08:01.753Z,26.50
2018-05-31T09:10:30.015Z,26.50
2018-05-31T09:12:58.604Z,26.50
2018-05-31T09:15:26.868Z,26.50
2018-05-31T09:17:55.116Z,26.50
2018-05-31T09:20:23.391Z,26.60
2018-05-31T09:22:51.655Z,26.70
2018-05-31T09:25:19.912Z,26.80
2018-05-31T09:27:48.208Z,26.90
2018-05-31T09:30:17.236Z,26.90
2018-05-31T09:32:45.746Z,26.90
2018-05-31T09:35:14.732Z,27.00
2018-05-31T09:37:42.975Z,27.10
2018-05-31T09:40:11.229Z,27.10
2018-05-31T09:42:39.504Z,27.10
2018-05-31T09:45:08.519Z,27.30
2018-05-31T09:47:36.777Z,27.20
2018-05-31T09:50:05.853Z,27.40
2018-05-31T09:52:34.100Z,27.40
2018-05-31T09:55:02.350Z,27.40
2018-05-31T09:57:30.948Z,27.50
2018-05-31T09:59:59.207Z,27.50
2018-05-31T10:02:27.977Z,27.50
2018-05-31T10:04:57.030Z,27.80
2018-05-31T10:07:25.270Z,27.70
2018-05-31T10:09:53.545Z,27.90
2018-05-31T10:12:21.813Z,27.90
2018-05-31T10:14:50.069Z,27.90
2018-05-31T10:17:18.321Z,27.90
2018-05-31T10:19:47.689Z,28.00
2018-05-31T10:22:15.929Z,28.10
2018-05-31T10:24:44.196Z,28.20
2018-05-31T10:27:12.456Z,28.30
2018-05-31T10:29:40.712Z,28.50
2018-05-31T10:32:08.964Z,28.50
2018-05-31T10:34:37.260Z,28.60
2018-05-31T10:37:05.504Z,28.60
2018-05-31T10:39:33.761Z,28.80
2018-05-31T10:42:03.004Z,28.90
2018-05-31T10:44:31.256Z,28.90
2018-05-31T10:46:59.509Z,29.00
2018-05-31T10:49:28.546Z,29.10
2018-05-31T10:51:56.788Z,29.10
2018-05-31T10:54:25.028Z,29.20
2018-05-31T10:56:53.309Z,29.00
2018-05-31T10:59:21.592Z,28.90
2018-05-31T11:01:49.980Z,28.90
2018-05-31T11:04:18.718Z,29.00
2018-05-31T11:06:46.968Z,29.10
2018-05-31T11:09:17.436Z,29.30
2018-05-31T11:11:46.310Z,29.50
2018-05-31T11:14:14.831Z,29.70
2018-05-31T11:16:43.305Z,30.10
2018-05-31T11:19:11.709Z,30.80
2018-05-31T11:21:41.928Z,33.10
2018-05-31T11:24:10.173Z,33.00
2018-05-31T11:26:38.677Z,34.20
2018-05-31T11:29:06.926Z,35.30
2018-05-31T11:31:35.177Z,35.80
2018-05-31T11:34:03.548Z,36.00
2018-05-31T11:36:31.868Z,36.70
2018-05-31T11:39:00.120Z,37.50
2018-05-31T11:41:28.396Z,38.30
2018-05-31T11:43:56.652Z,38.60
2018-05-31T11:46:24.904Z,39.00
2018-05-31T11:48:53.545Z,39.30
2018-05-31T11:51:21.793Z,39.10
2018-05-31T11:53:50.218Z,39.30
2018-05-31T11:56:18.506Z,40.00
2018-05-31T11:58:46.755Z,40.20
2018-05-31T12:01:15.048Z,40.50
2018-05-31T12:03:43.384Z,40.70
2018-05-31T12:06:11.587Z,41.00
2018-05-31T12:08:39.887Z,41.30
2018-05-31T12:11:08.213Z,41.70
2018-05-31T12:13:36.461Z,41.20
2018-05-31T12:16:04.769Z,41.00
2018-05-31T12:18:33.280Z,41.30
2018-05-31T12:21:01.511Z,41.30
2018-05-31T12:23:30.520Z,41.70
2018-05-31T12:25:58.917Z,41.70
2018-05-31T12:28:27.164Z,42.00
2018-05-31T12:30:55.412Z,42.60
2018-05-31T12:33:23.744Z,43.00
2018-05-31T12:35:52.034Z,43.40
2018-05-31T12:38:20.263Z,43.80
2018-05-31T12:40:48.712Z,44.20
2018-05-31T12:43:17.172Z,44.50
2018-05-31T12:45:45.422Z,44.40
2018-05-31T12:48:13.725Z,43.60
2018-05-31T12:50:41.940Z,43.00
2018-05-31T12:53:10.390Z,43.40
2018-05-31T12:55:38.931Z,44.00
2018-05-31T12:58:07.177Z,43.80
2018-05-31T13:00:36.192Z,40.80
2018-05-31T13:03:04.853Z,40.70
2018-05-31T13:05:34.175Z,40.90
2018-05-31T13:08:03.523Z,40.00
2018-05-31T13:10:31.809Z,40.00
2018-05-31T13:13:00.187Z,39.40
2018-05-31T13:15:28.436Z,39.90
2018-05-31T13:17:57.958Z,40.70
2018-05-31T13:20:26.250Z,41.80
2018-05-31T13:22:54.625Z,42.60
2018-05-31T13:25:23.033Z,43.40
2018-05-31T13:27:52.088Z,44.90
2018-05-31T13:30:20.312Z,44.90
2018-05-31T13:32:48.802Z,44.80
2018-05-31T13:35:17.808Z,44.70
2018-05-31T13:37:46.057Z,44.70
2018-05-31T13:40:14.892Z,43.30
2018-05-31T13:42:43.148Z,41.80
2018-05-31T13:45:11.577Z,40.60
2018-05-31T13:47:39.849Z,39.40
2018-05-31T13:50:08.219Z,38.40
2018-05-31T13:52:36.465Z,37.60
2018-05-31T13:55:04.841Z,36.90
2018-05-31T13:57:33.093Z,36.40
2018-05-31T14:00:02.491Z,36.20
2018-05-31T14:02:31.849Z,35.30
2018-05-31T14:05:00.096Z,35.20
2018-05-31T14:07:28.353Z,35.00
2018-05-31T14:09:56.628Z,35.00
2018-05-31T14:12:25.649Z,35.10
2018-05-31T14:14:53.893Z,35.10
2018-05-31T14:17:22.377Z,35.20
2018-05-31T14:19:51.396Z,34.70
2018-05-31T14:22:19.652Z,34.70
2018-05-31T14:24:48.101Z,34.40
2018-05-31T14:27:16.528Z,34.10
2018-05-31T14:29:44.783Z,34.70
2018-05-31T14:32:13.064Z,35.80
2018-05-31T14:34:41.369Z,36.70
2018-05-31T14:37:09.604Z,37.20
2018-05-31T14:39:38.255Z,38.30
2018-05-31T14:42:06.498Z,39.90
2018-05-31T14:44:34.736Z,41.70
2018-05-31T14:47:03.576Z,43.10
2018-05-31T14:49:31.821Z,43.30
2018-05-31T14:52:00.275Z,42.70
2018-05-31T14:54:28.546Z,43.20
2018-05-31T14:56:56.795Z,44.50
2018-05-31T14:59:25.042Z,45.00
2018-05-31T15:01:53.320Z,44.20
2018-05-31T15:04:21.581Z,42.10
2018-05-31T15:06:51.769Z,40.90
2018-05-31T15:09:20.092Z,41.10
2018-05-31T15:11:48.333Z,42.10
2018-05-31T15:14:16.586Z,42.90
2018-05-31T15:16:44.923Z,44.00
2018-05-31T15:19:13.119Z,45.10
2018-05-31T15:21:41.424Z,45.60
2018-05-31T15:24:09.696Z,45.30
2018-05-31T15:26:37.934Z,43.50
2018-05-31T15:29:06.172Z,41.20
2018-05-31T15:31:34.488Z,39.90
2018-05-31T15:34:02.899Z,39.10
2018-05-31T15:36:31.136Z,38.50
2018-05-31T15:38:59.400Z,38.00
2018-05-31T15:41:27.690Z,37.40
2018-05-31T15:43:55.919Z,36.90
2018-05-31T15:46:24.328Z,36.40
2018-05-31T15:48:53.342Z,35.60
2018-05-31T15:51:23.816Z,35.60
2018-05-31T15:53:52.592Z,35.30
2018-05-31T15:56:23.137Z,35.00
2018-05-31T15:58:51.428Z,35.00
2018-05-31T16:01:19.817Z,34.80
2018-05-31T16:03:50.154Z,34.40
2018-05-31T16:06:19.368Z,34.20
2018-05-31T16:08:48.061Z,34.20
2018-05-31T16:11:16.303Z,34.00
2018-05-31T16:13:44.769Z,33.70
2018-05-31T16:16:13.269Z,33.50
2018-05-31T16:18:41.652Z,33.30
2018-05-31T16:21:09.893Z,33.10
2018-05-31T16:23:38.174Z,32.90
2018-05-31T16:26:06.420Z,32.70
2018-05-31T16:28:35.682Z,32.50
2018-05-31T16:31:03.976Z,32.40
2018-05-31T16:33:32.292Z,32.30
2018-05-31T16:36:00.540Z,32.40
2018-05-31T16:38:28.888Z,32.20
2018-05-31T16:40:57.927Z,31.90
2018-05-31T16:43:26.241Z,31.90
2018-05-31T16:45:54.657Z,31.60
2018-05-31T16:48:23.657Z,31.20
2018-05-31T16:50:52.296Z,31.20
2018-05-31T16:53:20.699Z,31.20
2018-05-31T16:55:50.894Z,31.20
2018-05-31T16:58:21.184Z,31.20
2018-05-31T17:00:49.512Z,31.20
2018-05-31T17:03:17.888Z,31.20
2018-05-31T17:05:46.264Z,31.20
2018-05-31T17:08:16.481Z,31.10
2018-05-31T17:10:47.024Z,31.00
2018-05-31T17:13:17.225Z,30.90
2018-05-31T17:15:45.613Z,30.90
2018-05-31T17:18:14.081Z,31.00
2018-05-31T17:20:42.347Z,31.10
2018-05-31T17:23:10.811Z,31.10
2018-05-31T17:25:39.820Z,31.00
2018-05-31T17:28:10.298Z,31.00
2018-05-31T17:30:40.828Z,30.90
2018-05-31T17:33:11.093Z,30.80
2018-05-31T17:35:39.391Z,30.70
2018-05-31T17:38:08.778Z,30.70
2018-05-31T17:40:37.230Z,30.60
2018-05-31T17:43:06.793Z,30.50
2018-05-31T17:45:35.085Z,30.40
2018-05-31T17:48:04.393Z,30.20
2018-05-31T17:50:33.423Z,30.20
2018-05-31T17:53:02.112Z,30.20
2018-05-31T17:55:31.379Z,30.10
2018-05-31T17:58:00.636Z,29.90
2018-05-31T18:00:29.103Z,29.90
2018-05-31T18:02:58.364Z,29.70
2018-05-31T18:05:26.941Z,29.60
2018-05-31T18:07:55.733Z,29.50
2018-05-31T18:10:24.066Z,29.50
2018-05-31T18:12:52.453Z,29.50
2018-05-31T18:15:22.745Z,29.40
2018-05-31T18:17:50.988Z,29.40
2018-05-31T18:20:19.454Z,29.30
2018-05-31T18:22:50.037Z,29.10
2018-05-31T18:25:18.351Z,29.10
2018-05-31T18:27:46.606Z,28.90
2018-05-31T18:30:14.957Z,28.90
2018-05-31T18:32:43.210Z,28.80
2018-05-31T18:35:12.224Z,28.70
2018-05-31T18:37:40.573Z,28.70
2018-05-31T18:40:11.990Z,28.70
2018-05-31T18:42:43.760Z,28.60
2018-05-31T18:45:15.198Z,28.60
2018-05-31T18:47:43.577Z,28.70
2018-05-31T18:50:11.977Z,28.50
2018-05-31T18:52:42.483Z,28.30
2018-05-31T18:55:11.782Z,28.20
2018-05-31T18:57:40.305Z,28.20
2018-05-31T19:00:09.464Z,28.10
2018-05-31T19:02:38.764Z,28.10
2018-05-31T19:05:07.394Z,28.10
2018-05-31T19:07:35.884Z,28.10
2018-05-31T19:10:07.333Z,28.10
2018-05-31T19:12:42.384Z,27.90
2018-05-31T19:15:10.792Z,27.90
2018-05-31T19:17:40.101Z,27.80
2018-05-31T19:20:08.852Z,27.80
2018-05-31T19:22:37.250Z,27.70
2018-05-31T19:25:11.172Z,27.60
2018-05-31T19:27:40.613Z,27.60
2018-05-31T19:30:14.750Z,27.60
2018-05-31T19:32:43.011Z,27.60
2018-05-31T19:35:18.196Z,27.50
2018-05-31T19:37:46.796Z,27.50
2018-05-31T19:40:15.336Z,27.50
2018-05-31T19:42:49.336Z,27.50
2018-05-31T19:45:17.752Z,27.50
2018-05-31T19:47:47.065Z,27.50
2018-05-31T19:50:17.377Z,27.50
2018-05-31T19:52:52.311Z,27.50
2018-05-31T19:55:20.630Z,27.50
2018-05-31T19:57:54.632Z,27.50
2018-05-31T20:00:28.852Z,27.40
2018-05-31T20:03:02.800Z,27.40
2018-05-31T20:05:31.074Z,27.40
2018-05-31T20:07:59.318Z,27.40
2018-05-31T20:10:28.340Z,27.30
2018-05-31T20:12:58.013Z,27.30
2018-05-31T20:15:27.184Z,27.20
2018-05-31T20:17:55.567Z,27.20
2018-05-31T20:20:23.841Z,27.10
2018-05-31T20:22:52.326Z,27.10
2018-05-31T20:25:20.573Z,27.10
2018-05-31T20:27:48.841Z,27.10
2018-05-31T20:30:17.092Z,27.10
2018-05-31T20:32:45.337Z,27.00
2018-05-31T20:35:13.681Z,27.00
2018-05-31T20:37:42.288Z,27.00
2018-05-31T20:40:10.668Z,27.00
2018-05-31T20:42:39.101Z,27.00
2018-05-31T20:45:08.101Z,26.80
2018-05-31T20:47:36.432Z,26.80
2018-05-31T20:50:04.893Z,26.80
2018-05-31T20:52:33.156Z,26.70
2018-05-31T20:55:01.580Z,26.80
2018-05-31T20:57:30.944Z,26.70
2018-05-31T20:59:59.290Z,26.60
2018-05-31T21:02:27.502Z,26.60
2018-05-31T21:04:55.756Z,26.60
2018-05-31T21:07:24.016Z,26.60
2018-05-31T21:09:52.453Z,26.50
2018-05-31T21:12:21.859Z,26.50
2018-05-31T21:14:50.160Z,26.40
2018-05-31T21:17:19.181Z,26.40
2018-05-31T21:19:48.200Z,26.40
2018-05-31T21:22:16.445Z,26.40
2018-05-31T21:24:44.885Z,26.40
2018-05-31T21:27:13.278Z,26.30
2018-05-31T21:29:42.296Z,26.20
2018-05-31T21:32:10.677Z,26.20
2018-05-31T21:34:39.054Z,26.20
2018-05-31T21:37:07.386Z,26.10
2018-05-31T21:39:35.784Z,26.00
2018-05-31T21:42:05.153Z,26.00
2018-05-31T21:44:33.453Z,26.00
2018-05-31T21:47:01.702Z,26.00
2018-05-31T21:49:30.009Z,26.00
2018-05-31T21:51:58.255Z,25.90
2018-05-31T21:54:30.651Z,25.80
2018-05-31T21:56:59.054Z,25.80
2018-05-31T21:59:29.264Z,25.70
2018-05-31T22:01:57.512Z,25.70
2018-05-31T22:04:25.972Z,25.70
2018-05-31T22:06:54.216Z,25.70
2018-05-31T22:09:23.236Z,25.60
2018-05-31T22:11:51.637Z,25.60
2018-05-31T22:14:20.752Z,25.60
2018-05-31T22:16:49.004Z,25.50
2018-05-31T22:19:19.383Z,25.40
2018-05-31T22:21:48.388Z,25.40
2018-05-31T22:24:16.735Z,25.30
2018-05-31T22:26:45.189Z,25.30
2018-05-31T22:29:15.624Z,25.30
2018-05-31T22:31:44.008Z,25.30
2018-05-31T22:34:12.313Z,25.30
2018-05-31T22:36:41.638Z,25.30
2018-05-31T22:39:09.849Z,25.30
2018-05-31T22:41:38.157Z,25.20
2018-05-31T22:44:08.399Z,25.10
2018-05-31T22:46:37.419Z,25.10
2018-05-31T22:49:05.825Z,25.10
2018-05-31T22:51:34.788Z,25.10
2018-05-31T22:54:03.085Z,25.00
2018-05-31T22:56:31.308Z,25.00
2018-05-31T22:59:00.324Z,25.00
2018-05-31T23:01:29.800Z,24.90
2018-05-31T23:03:58.844Z,24.90
2018-05-31T23:06:27.156Z,24.90
2018-05-31T23:08:55.544Z,24.90
2018-05-31T23:11:23.976Z,24.90
2018-05-31T23:13:52.301Z,24.80
2018-05-31T23:16:20.664Z,24.80
2018-05-31T23:18:48.940Z,24.80
2018-05-31T23:21:17.315Z,24.70
2018-05-31T23:23:45.565Z,24.70
2018-05-31T23:26:13.839Z,24.70
2018-05-31T23:28:42.081Z,24.70
2018-05-31T23:31:11.101Z,24.60
2018-05-31T23:33:39.480Z,24.60
2018-05-31T23:36:07.834Z,24.60
2018-05-31T23:38:36.089Z,24.60
2018-05-31T23:41:04.364Z,24.50
2018-05-31T23:43:32.617Z,24.50
2018-05-31T23:46:01.833Z,24.50
2018-05-31T23:48:30.092Z,24.60
2018-05-31T23:50:58.332Z,24.50
2018-05-31T23:53:26.662Z,24.40
2018-05-31T23:55:55.113Z,24.40
2018-05-31T23:58:23.416Z,24.40
